Погода Пиггс Пеакна неделю

Кадако, Свазиленд

12 - 18 июля
  • 12июля
    Сегодня
    +13°
    +30°
    Ясно и безоблачно
    ВремяПогодаТемператураВлажностьДавлениеВетер, м/сВероятность осадков
    02:00Ясно и безоблачно+15°C17 %674 мм3.9 м/с5 %
    05:00Ясно и безоблачно+14°C18 %674 мм4.0 м/с5 %
    08:00Ясно и безоблачно+17°C24 %676 мм3.9 м/с5 %
    11:00Ясно и безоблачно+25°C12 %678 мм1.2 м/с5 %
    14:00Ясно и безоблачно+29°C9 %676 мм1.9 м/с5 %
    17:00Ясно и безоблачно+24°C39 %676 мм1.3 м/с5 %
    20:00Ясно и безоблачно+16°C34 %675 мм2.2 м/с5 %
    23:00Ясно и безоблачно+17°C21 %676 мм3.3 м/с5 %
  • 13июля
    Суббота
    +13°
    +28°
    Ясно и безоблачно
    ВремяПогодаТемператураВлажностьДавлениеВетер, м/сВероятность осадков
    02:00Ясно и безоблачно+15°C20 %675 мм3.9 м/с5 %
    05:00Ясно и безоблачно+13°C19 %675 мм4.3 м/с5 %
    08:00Ясно и безоблачно+16°C24 %677 мм4.1 м/с5 %
    11:00Ясно и безоблачно+24°C13 %678 мм1.3 м/с5 %
    14:00Ясно и безоблачно+28°C11 %677 мм2.1 м/с5 %
    17:00Ясно и безоблачно+22°C43 %676 мм1.9 м/с5 %
    20:00Ясно и безоблачно+18°C29 %676 мм2.2 м/с5 %
    23:00Ясно и безоблачно+16°C29 %675 мм3.1 м/с5 %
  • 14июля
    Воскресенье
    +12°
    +30°
    Ясно и безоблачно
    ВремяПогодаТемператураВлажностьДавлениеВетер, м/сВероятность осадков
    02:00Ясно и безоблачно+15°C23 %674 мм3.4 м/с5 %
    05:00Ясно и безоблачно+14°C21 %674 мм3.5 м/с5 %
    08:00Ясно и безоблачно+17°C24 %676 мм3.4 м/с5 %
    11:00Ясно и безоблачно+25°C14 %677 мм0.9 м/с5 %
    14:00Ясно и безоблачно+30°C12 %676 мм1.2 м/с5 %
    17:00Ясно и безоблачно+25°C34 %676 мм1.6 м/с5 %
    20:00Ясно и безоблачно+22°C31 %677 мм0.5 м/с5 %
    23:00Облачно с прояснениями+17°C83 %678 мм0.3 м/с5 %
  • 15июля
    Понедельник
    +8°
    +20°
    Небольшая облачность
    ВремяПогодаТемператураВлажностьДавлениеВетер, м/сВероятность осадков
    02:00Пасмурно, небольшой дождь+15°C96 %678 мм1.9 м/с12 %
    05:00Пасмурно, небольшой дождь+13°C96 %677 мм1.8 м/с17 %
    08:00Облачно с прояснениями+12°C95 %678 мм2.0 м/с26 %
    11:00Облачно с прояснениями+15°C73 %678 мм2.0 м/с20 %
    14:00Небольшая облачность+19°C59 %677 мм3.6 м/с4 %
    17:00Ясно и безоблачно+18°C64 %677 мм2.4 м/с5 %
    20:00Ясно и безоблачно+14°C79 %677 мм1.3 м/с3 %
    23:00Ясно и безоблачно+12°C90 %677 мм0.7 м/с6 %
  • 16июля
    Вторник
    +13°
    +22°
    Ясно и безоблачно
    ВремяПогодаТемператураВлажностьДавлениеВетер, м/сВероятность осадков
    02:00Ясно и безоблачно+10°C97 %676 мм1.1 м/с12 %
    05:00Практически безоблачно+9°C97 %675 мм1.8 м/с10 %
    08:00Практически безоблачно+11°C88 %677 мм1.6 м/с7 %
    11:00Ясно и безоблачно+18°C50 %678 мм1.4 м/с5 %
    14:00Ясно и безоблачно+22°C48 %676 мм3.6 м/с5 %
    17:00Ясно и безоблачно+19°C63 %676 мм2.9 м/с5 %
    20:00Ясно и безоблачно+15°C84 %675 мм2.6 м/с5 %
    23:00Ясно и безоблачно+15°C88 %675 мм2.9 м/с5 %
Мы используем cookies
Соглашаюсь